sensor_id;sensor_type;location;lat;lon;timestamp;P1;durP1;ratioP1;P2;durP2;ratioP2
15677;SDS011;7939;50.814;6.368;2022-12-10T00:00:03;23.45;;;13.70;;
15677;SDS011;7939;50.814;6.368;2022-12-10T00:02:30;21.02;;;13.18;;
15677;SDS011;7939;50.814;6.368;2022-12-10T00:04:58;23.23;;;13.95;;
15677;SDS011;7939;50.814;6.368;2022-12-10T00:07:24;20.20;;;12.25;;
15677;SDS011;7939;50.814;6.368;2022-12-10T00:09:51;21.05;;;13.25;;
15677;SDS011;7939;50.814;6.368;2022-12-10T00:12:18;21.08;;;13.18;;
15677;SDS011;7939;50.814;6.368;2022-12-10T00:14:45;18.92;;;12.60;;
15677;SDS011;7939;50.814;6.368;2022-12-10T00:17:11;21.73;;;13.68;;
15677;SDS011;7939;50.814;6.368;2022-12-10T00:19:38;21.02;;;12.93;;
15677;SDS011;7939;50.814;6.368;2022-12-10T00:22:06;21.77;;;13.48;;
15677;SDS011;7939;50.814;6.368;2022-12-10T00:24:32;19.98;;;13.05;;
15677;SDS011;7939;50.814;6.368;2022-12-10T00:26:59;18.92;;;13.05;;
15677;SDS011;7939;50.814;6.368;2022-12-10T00:29:26;20.15;;;12.75;;
15677;SDS011;7939;50.814;6.368;2022-12-10T00:31:52;18.52;;;12.13;;
15677;SDS011;7939;50.814;6.368;2022-12-10T00:34:19;21.67;;;13.20;;
15677;SDS011;7939;50.814;6.368;2022-12-10T00:36:46;22.27;;;13.30;;
15677;SDS011;7939;50.814;6.368;2022-12-10T00:39:16;20.83;;;13.80;;
15677;SDS011;7939;50.814;6.368;2022-12-10T00:41:44;21.30;;;13.73;;
15677;SDS011;7939;50.814;6.368;2022-12-10T00:44:11;18.73;;;12.30;;
15677;SDS011;7939;50.814;6.368;2022-12-10T00:46:38;22.40;;;13.73;;
15677;SDS011;7939;50.814;6.368;2022-12-10T00:49:04;21.40;;;12.77;;
15677;SDS011;7939;50.814;6.368;2022-12-10T00:51:31;21.63;;;13.60;;
15677;SDS011;7939;50.814;6.368;2022-12-10T00:53:58;23.27;;;13.05;;
15677;SDS011;7939;50.814;6.368;2022-12-10T00:56:26;23.17;;;14.48;;
15677;SDS011;7939;50.814;6.368;2022-12-10T00:58:55;24.08;;;13.55;;
15677;SDS011;7939;50.814;6.368;2022-12-10T01:01:23;23.48;;;13.68;;
15677;SDS011;7939;50.814;6.368;2022-12-10T01:03:52;20.48;;;12.73;;
15677;SDS011;7939;50.814;6.368;2022-12-10T01:06:20;22.60;;;13.18;;
15677;SDS011;7939;50.814;6.368;2022-12-10T01:08:50;21.15;;;13.07;;
15677;SDS011;7939;50.814;6.368;2022-12-10T01:11:19;22.45;;;13.55;;
15677;SDS011;7939;50.814;6.368;2022-12-10T01:13:48;19.80;;;13.30;;
15677;SDS011;7939;50.814;6.368;2022-12-10T01:16:16;21.90;;;13.73;;
15677;SDS011;7939;50.814;6.368;2022-12-10T01:18:44;23.70;;;14.27;;
15677;SDS011;7939;50.814;6.368;2022-12-10T01:21:12;22.80;;;15.02;;
15677;SDS011;7939;50.814;6.368;2022-12-10T01:23:41;25.15;;;15.93;;
15677;SDS011;7939;50.814;6.368;2022-12-10T01:26:09;23.40;;;14.40;;
15677;SDS011;7939;50.814;6.368;2022-12-10T01:28:39;23.38;;;14.32;;
15677;SDS011;7939;50.814;6.368;2022-12-10T01:31:08;24.25;;;15.18;;
15677;SDS011;7939;50.814;6.368;2022-12-10T01:33:37;22.42;;;13.98;;
15677;SDS011;7939;50.814;6.368;2022-12-10T01:36:05;22.02;;;13.38;;
15677;SDS011;7939;50.814;6.368;2022-12-10T01:38:33;21.48;;;13.25;;
15677;SDS011;7939;50.814;6.368;2022-12-10T01:41:01;21.80;;;14.15;;
15677;SDS011;7939;50.814;6.368;2022-12-10T01:43:27;24.70;;;14.77;;
15677;SDS011;7939;50.814;6.368;2022-12-10T01:46:15;22.95;;;14.55;;
15677;SDS011;7939;50.814;6.368;2022-12-10T01:48:41;23.08;;;14.73;;
15677;SDS011;7939;50.814;6.368;2022-12-10T01:51:08;25.48;;;15.15;;
15677;SDS011;7939;50.814;6.368;2022-12-10T01:53:36;22.13;;;13.77;;
15677;SDS011;7939;50.814;6.368;2022-12-10T01:56:03;21.25;;;15.57;;
15677;SDS011;7939;50.814;6.368;2022-12-10T01:58:30;24.40;;;14.25;;
15677;SDS011;7939;50.814;6.368;2022-12-10T02:00:59;22.13;;;14.38;;
15677;SDS011;7939;50.814;6.368;2022-12-10T02:03:35;24.83;;;14.82;;
15677;SDS011;7939;50.814;6.368;2022-12-10T02:06:14;26.27;;;16.30;;
15677;SDS011;7939;50.814;6.368;2022-12-10T02:08:50;24.00;;;15.25;;
15677;SDS011;7939;50.814;6.368;2022-12-10T02:11:27;25.23;;;14.18;;
15677;SDS011;7939;50.814;6.368;2022-12-10T02:14:00;21.55;;;14.05;;
15677;SDS011;7939;50.814;6.368;2022-12-10T02:16:31;23.95;;;14.38;;
15677;SDS011;7939;50.814;6.368;2022-12-10T02:19:03;20.50;;;13.63;;
15677;SDS011;7939;50.814;6.368;2022-12-10T02:21:39;22.17;;;13.40;;
15677;SDS011;7939;50.814;6.368;2022-12-10T02:24:08;16.92;;;12.07;;
15677;SDS011;7939;50.814;6.368;2022-12-10T02:26:40;23.35;;;14.45;;
15677;SDS011;7939;50.814;6.368;2022-12-10T02:29:13;23.27;;;14.10;;
15677;SDS011;7939;50.814;6.368;2022-12-10T02:31:43;23.95;;;13.68;;
15677;SDS011;7939;50.814;6.368;2022-12-10T02:34:12;23.80;;;15.20;;
15677;SDS011;7939;50.814;6.368;2022-12-10T02:36:41;22.95;;;14.57;;
15677;SDS011;7939;50.814;6.368;2022-12-10T02:39:11;25.88;;;15.18;;
15677;SDS011;7939;50.814;6.368;2022-12-10T02:41:41;22.38;;;14.43;;
15677;SDS011;7939;50.814;6.368;2022-12-10T02:44:14;23.20;;;15.10;;
15677;SDS011;7939;50.814;6.368;2022-12-10T02:46:44;25.55;;;14.57;;
15677;SDS011;7939;50.814;6.368;2022-12-10T02:49:15;29.02;;;16.52;;
15677;SDS011;7939;50.814;6.368;2022-12-10T02:51:43;24.80;;;16.40;;
15677;SDS011;7939;50.814;6.368;2022-12-10T02:57:03;26.95;;;15.07;;
15677;SDS011;7939;50.814;6.368;2022-12-10T02:59:41;23.70;;;14.80;;
15677;SDS011;7939;50.814;6.368;2022-12-10T03:02:19;26.02;;;15.55;;
15677;SDS011;7939;50.814;6.368;2022-12-10T03:04:51;26.45;;;16.67;;
15677;SDS011;7939;50.814;6.368;2022-12-10T03:07:23;24.40;;;15.40;;
15677;SDS011;7939;50.814;6.368;2022-12-10T03:09:55;27.75;;;15.95;;
15677;SDS011;7939;50.814;6.368;2022-12-10T03:12:27;23.65;;;15.70;;
15677;SDS011;7939;50.814;6.368;2022-12-10T03:14:59;25.75;;;15.07;;
15677;SDS011;7939;50.814;6.368;2022-12-10T03:17:29;25.17;;;16.23;;
15677;SDS011;7939;50.814;6.368;2022-12-10T03:19:57;27.80;;;15.98;;
15677;SDS011;7939;50.814;6.368;2022-12-10T03:22:26;28.25;;;16.95;;
15677;SDS011;7939;50.814;6.368;2022-12-10T03:24:55;27.27;;;16.38;;
15677;SDS011;7939;50.814;6.368;2022-12-10T03:27:23;26.90;;;16.15;;
15677;SDS011;7939;50.814;6.368;2022-12-10T03:29:50;33.38;;;18.02;;
15677;SDS011;7939;50.814;6.368;2022-12-10T03:32:22;38.95;;;19.52;;
15677;SDS011;7939;50.814;6.368;2022-12-10T03:34:51;33.55;;;18.70;;
15677;SDS011;7939;50.814;6.368;2022-12-10T03:37:19;32.70;;;17.60;;
15677;SDS011;7939;50.814;6.368;2022-12-10T03:39:47;38.28;;;18.23;;
15677;SDS011;7939;50.814;6.368;2022-12-10T03:42:14;39.65;;;20.75;;
15677;SDS011;7939;50.814;6.368;2022-12-10T03:44:41;37.75;;;18.67;;
15677;SDS011;7939;50.814;6.368;2022-12-10T03:47:09;41.10;;;19.30;;
15677;SDS011;7939;50.814;6.368;2022-12-10T03:49:40;36.67;;;19.02;;
15677;SDS011;7939;50.814;6.368;2022-12-10T03:52:08;35.38;;;19.02;;
15677;SDS011;7939;50.814;6.368;2022-12-10T03:54:34;35.58;;;18.33;;
15677;SDS011;7939;50.814;6.368;2022-12-10T03:57:01;36.75;;;18.77;;
15677;SDS011;7939;50.814;6.368;2022-12-10T03:59:28;39.22;;;19.05;;
15677;SDS011;7939;50.814;6.368;2022-12-10T04:01:55;41.85;;;18.95;;
15677;SDS011;7939;50.814;6.368;2022-12-10T04:04:22;38.70;;;18.45;;
15677;SDS011;7939;50.814;6.368;2022-12-10T04:06:50;39.42;;;19.95;;
15677;SDS011;7939;50.814;6.368;2022-12-10T04:09:17;42.60;;;20.95;;
15677;SDS011;7939;50.814;6.368;2022-12-10T04:11:44;36.10;;;18.50;;
15677;SDS011;7939;50.814;6.368;2022-12-10T04:14:11;41.10;;;19.35;;
15677;SDS011;7939;50.814;6.368;2022-12-10T04:16:56;36.30;;;19.00;;
15677;SDS011;7939;50.814;6.368;2022-12-10T04:19:22;37.53;;;18.88;;
15677;SDS011;7939;50.814;6.368;2022-12-10T04:21:51;36.40;;;19.42;;
15677;SDS011;7939;50.814;6.368;2022-12-10T04:24:35;36.08;;;19.35;;
15677;SDS011;7939;50.814;6.368;2022-12-10T04:27:21;39.30;;;19.30;;
15677;SDS011;7939;50.814;6.368;2022-12-10T04:29:50;39.25;;;19.52;;
15677;SDS011;7939;50.814;6.368;2022-12-10T04:32:17;41.93;;;20.47;;
15677;SDS011;7939;50.814;6.368;2022-12-10T04:34:45;36.17;;;19.35;;
15677;SDS011;7939;50.814;6.368;2022-12-10T04:37:13;40.53;;;18.13;;
15677;SDS011;7939;50.814;6.368;2022-12-10T04:39:40;45.15;;;21.67;;
15677;SDS011;7939;50.814;6.368;2022-12-10T04:42:07;45.50;;;21.67;;
15677;SDS011;7939;50.814;6.368;2022-12-10T04:44:34;39.92;;;18.08;;
15677;SDS011;7939;50.814;6.368;2022-12-10T04:47:01;40.33;;;18.95;;
15677;SDS011;7939;50.814;6.368;2022-12-10T04:49:27;36.40;;;18.95;;
15677;SDS011;7939;50.814;6.368;2022-12-10T04:51:54;40.83;;;19.03;;
15677;SDS011;7939;50.814;6.368;2022-12-10T04:54:22;40.35;;;21.02;;
15677;SDS011;7939;50.814;6.368;2022-12-10T04:56:49;44.92;;;19.98;;
15677;SDS011;7939;50.814;6.368;2022-12-10T04:59:16;38.05;;;19.30;;
15677;SDS011;7939;50.814;6.368;2022-12-10T05:01:43;45.92;;;21.35;;
15677;SDS011;7939;50.814;6.368;2022-12-10T05:04:11;45.15;;;20.73;;
15677;SDS011;7939;50.814;6.368;2022-12-10T05:06:39;44.63;;;19.88;;
15677;SDS011;7939;50.814;6.368;2022-12-10T05:09:05;41.65;;;19.75;;
15677;SDS011;7939;50.814;6.368;2022-12-10T05:11:34;45.30;;;20.20;;
15677;SDS011;7939;50.814;6.368;2022-12-10T05:14:01;45.65;;;20.17;;
15677;SDS011;7939;50.814;6.368;2022-12-10T05:16:29;46.25;;;21.63;;
15677;SDS011;7939;50.814;6.368;2022-12-10T05:18:57;49.00;;;22.48;;
15677;SDS011;7939;50.814;6.368;2022-12-10T05:21:26;44.95;;;19.70;;
15677;SDS011;7939;50.814;6.368;2022-12-10T05:24:15;47.90;;;20.75;;
15677;SDS011;7939;50.814;6.368;2022-12-10T05:26:43;47.38;;;20.20;;
15677;SDS011;7939;50.814;6.368;2022-12-10T05:29:11;44.22;;;21.05;;
15677;SDS011;7939;50.814;6.368;2022-12-10T05:31:39;46.53;;;21.70;;
15677;SDS011;7939;50.814;6.368;2022-12-10T05:34:05;46.40;;;21.55;;
15677;SDS011;7939;50.814;6.368;2022-12-10T05:36:33;40.75;;;19.65;;
15677;SDS011;7939;50.814;6.368;2022-12-10T05:39:00;45.72;;;20.80;;
15677;SDS011;7939;50.814;6.368;2022-12-10T05:41:27;46.22;;;21.27;;
15677;SDS011;7939;50.814;6.368;2022-12-10T05:43:57;48.40;;;21.52;;
15677;SDS011;7939;50.814;6.368;2022-12-10T05:46:25;42.50;;;20.67;;
15677;SDS011;7939;50.814;6.368;2022-12-10T05:48:53;47.42;;;21.67;;
15677;SDS011;7939;50.814;6.368;2022-12-10T05:51:21;40.75;;;20.73;;
15677;SDS011;7939;50.814;6.368;2022-12-10T05:53:49;43.53;;;19.73;;
15677;SDS011;7939;50.814;6.368;2022-12-10T05:56:17;40.33;;;19.77;;
15677;SDS011;7939;50.814;6.368;2022-12-10T05:58:46;38.50;;;18.73;;
15677;SDS011;7939;50.814;6.368;2022-12-10T06:01:16;45.13;;;19.08;;
15677;SDS011;7939;50.814;6.368;2022-12-10T06:03:44;43.50;;;20.17;;
15677;SDS011;7939;50.814;6.368;2022-12-10T06:06:11;40.40;;;18.80;;
15677;SDS011;7939;50.814;6.368;2022-12-10T06:08:39;40.30;;;19.17;;
15677;SDS011;7939;50.814;6.368;2022-12-10T06:11:06;38.15;;;18.25;;
15677;SDS011;7939;50.814;6.368;2022-12-10T06:13:35;44.45;;;19.08;;
15677;SDS011;7939;50.814;6.368;2022-12-10T06:16:03;37.17;;;20.05;;
15677;SDS011;7939;50.814;6.368;2022-12-10T06:18:31;39.35;;;19.15;;
15677;SDS011;7939;50.814;6.368;2022-12-10T06:20:58;38.35;;;18.70;;
15677;SDS011;7939;50.814;6.368;2022-12-10T06:23:25;40.08;;;18.67;;
15677;SDS011;7939;50.814;6.368;2022-12-10T06:25:51;39.97;;;19.20;;
15677;SDS011;7939;50.814;6.368;2022-12-10T06:28:18;36.72;;;18.05;;
15677;SDS011;7939;50.814;6.368;2022-12-10T06:30:44;37.30;;;17.95;;
15677;SDS011;7939;50.814;6.368;2022-12-10T06:33:11;36.22;;;18.05;;
15677;SDS011;7939;50.814;6.368;2022-12-10T06:35:39;36.88;;;17.77;;
15677;SDS011;7939;50.814;6.368;2022-12-10T06:38:05;39.92;;;19.38;;
15677;SDS011;7939;50.814;6.368;2022-12-10T06:40:32;32.75;;;17.77;;
15677;SDS011;7939;50.814;6.368;2022-12-10T06:42:58;34.40;;;18.52;;
15677;SDS011;7939;50.814;6.368;2022-12-10T06:45:25;40.13;;;18.98;;
15677;SDS011;7939;50.814;6.368;2022-12-10T06:47:52;37.70;;;19.20;;
15677;SDS011;7939;50.814;6.368;2022-12-10T06:50:18;34.50;;;18.13;;
15677;SDS011;7939;50.814;6.368;2022-12-10T06:52:46;36.70;;;18.15;;
15677;SDS011;7939;50.814;6.368;2022-12-10T06:55:13;38.40;;;19.13;;
15677;SDS011;7939;50.814;6.368;2022-12-10T06:57:39;37.17;;;19.30;;
15677;SDS011;7939;50.814;6.368;2022-12-10T07:00:06;38.47;;;20.13;;
15677;SDS011;7939;50.814;6.368;2022-12-10T07:02:34;39.10;;;18.87;;
15677;SDS011;7939;50.814;6.368;2022-12-10T07:05:00;41.70;;;20.33;;
15677;SDS011;7939;50.814;6.368;2022-12-10T07:07:27;40.08;;;20.35;;
15677;SDS011;7939;50.814;6.368;2022-12-10T07:09:55;36.40;;;18.20;;
15677;SDS011;7939;50.814;6.368;2022-12-10T07:12:21;33.97;;;18.60;;
15677;SDS011;7939;50.814;6.368;2022-12-10T07:14:48;38.00;;;19.63;;
15677;SDS011;7939;50.814;6.368;2022-12-10T07:17:14;35.40;;;19.40;;
15677;SDS011;7939;50.814;6.368;2022-12-10T07:19:41;35.33;;;19.23;;
15677;SDS011;7939;50.814;6.368;2022-12-10T07:22:07;35.42;;;18.83;;
15677;SDS011;7939;50.814;6.368;2022-12-10T07:24:34;35.85;;;17.38;;
15677;SDS011;7939;50.814;6.368;2022-12-10T07:27:04;36.72;;;19.58;;
15677;SDS011;7939;50.814;6.368;2022-12-10T07:29:31;43.45;;;20.90;;
15677;SDS011;7939;50.814;6.368;2022-12-10T07:31:57;41.30;;;19.30;;
15677;SDS011;7939;50.814;6.368;2022-12-10T07:34:24;36.65;;;19.02;;
15677;SDS011;7939;50.814;6.368;2022-12-10T07:36:52;39.20;;;19.48;;
15677;SDS011;7939;50.814;6.368;2022-12-10T07:39:19;40.47;;;19.88;;
15677;SDS011;7939;50.814;6.368;2022-12-10T07:41:47;39.20;;;20.00;;
15677;SDS011;7939;50.814;6.368;2022-12-10T07:44:16;43.13;;;20.58;;
15677;SDS011;7939;50.814;6.368;2022-12-10T07:46:44;44.00;;;20.98;;
15677;SDS011;7939;50.814;6.368;2022-12-10T07:49:11;40.10;;;20.35;;
15677;SDS011;7939;50.814;6.368;2022-12-10T07:51:37;40.85;;;19.92;;
15677;SDS011;7939;50.814;6.368;2022-12-10T07:54:04;44.20;;;20.17;;
15677;SDS011;7939;50.814;6.368;2022-12-10T07:56:31;36.85;;;18.58;;
15677;SDS011;7939;50.814;6.368;2022-12-10T07:58:57;40.67;;;20.70;;
15677;SDS011;7939;50.814;6.368;2022-12-10T08:01:25;40.85;;;19.15;;
15677;SDS011;7939;50.814;6.368;2022-12-10T08:03:53;35.78;;;19.27;;
15677;SDS011;7939;50.814;6.368;2022-12-10T08:06:22;37.90;;;19.63;;
15677;SDS011;7939;50.814;6.368;2022-12-10T08:08:50;37.97;;;18.80;;
15677;SDS011;7939;50.814;6.368;2022-12-10T08:11:17;37.60;;;20.02;;
15677;SDS011;7939;50.814;6.368;2022-12-10T08:13:45;37.28;;;18.80;;
15677;SDS011;7939;50.814;6.368;2022-12-10T08:16:13;34.22;;;18.55;;
15677;SDS011;7939;50.814;6.368;2022-12-10T08:18:42;35.95;;;19.77;;
15677;SDS011;7939;50.814;6.368;2022-12-10T08:21:10;33.50;;;18.77;;
15677;SDS011;7939;50.814;6.368;2022-12-10T08:23:37;36.17;;;19.45;;
15677;SDS011;7939;50.814;6.368;2022-12-10T08:26:04;35.85;;;19.67;;
15677;SDS011;7939;50.814;6.368;2022-12-10T08:28:32;31.88;;;18.67;;
15677;SDS011;7939;50.814;6.368;2022-12-10T08:30:59;36.25;;;19.58;;
15677;SDS011;7939;50.814;6.368;2022-12-10T08:33:25;38.90;;;20.73;;
15677;SDS011;7939;50.814;6.368;2022-12-10T08:35:53;34.87;;;19.97;;
15677;SDS011;7939;50.814;6.368;2022-12-10T08:38:23;34.45;;;19.98;;
15677;SDS011;7939;50.814;6.368;2022-12-10T08:40:50;36.35;;;20.52;;
15677;SDS011;7939;50.814;6.368;2022-12-10T08:43:16;33.67;;;19.10;;
15677;SDS011;7939;50.814;6.368;2022-12-10T08:45:43;33.65;;;19.52;;
15677;SDS011;7939;50.814;6.368;2022-12-10T08:48:09;33.85;;;19.33;;
15677;SDS011;7939;50.814;6.368;2022-12-10T08:50:36;33.50;;;19.27;;
15677;SDS011;7939;50.814;6.368;2022-12-10T08:53:04;36.63;;;19.60;;
15677;SDS011;7939;50.814;6.368;2022-12-10T08:55:31;34.47;;;19.95;;
15677;SDS011;7939;50.814;6.368;2022-12-10T08:57:57;35.67;;;18.52;;
15677;SDS011;7939;50.814;6.368;2022-12-10T09:00:25;30.55;;;17.05;;
15677;SDS011;7939;50.814;6.368;2022-12-10T09:02:52;30.42;;;18.20;;
15677;SDS011;7939;50.814;6.368;2022-12-10T09:05:18;32.80;;;17.73;;
15677;SDS011;7939;50.814;6.368;2022-12-10T09:07:45;32.92;;;17.35;;
15677;SDS011;7939;50.814;6.368;2022-12-10T09:10:13;32.30;;;17.95;;
15677;SDS011;7939;50.814;6.368;2022-12-10T09:12:39;34.90;;;18.08;;
15677;SDS011;7939;50.814;6.368;2022-12-10T09:15:08;29.25;;;18.10;;
15677;SDS011;7939;50.814;6.368;2022-12-10T09:17:36;29.42;;;16.98;;
15677;SDS011;7939;50.814;6.368;2022-12-10T09:20:05;30.27;;;17.20;;
15677;SDS011;7939;50.814;6.368;2022-12-10T09:22:32;31.35;;;17.88;;
15677;SDS011;7939;50.814;6.368;2022-12-10T09:25:02;31.42;;;18.05;;
15677;SDS011;7939;50.814;6.368;2022-12-10T09:27:31;32.03;;;17.48;;
15677;SDS011;7939;50.814;6.368;2022-12-10T09:29:58;33.03;;;18.17;;
15677;SDS011;7939;50.814;6.368;2022-12-10T09:32:24;31.92;;;18.00;;
15677;SDS011;7939;50.814;6.368;2022-12-10T09:34:51;32.20;;;17.20;;
15677;SDS011;7939;50.814;6.368;2022-12-10T09:37:18;33.47;;;18.70;;
15677;SDS011;7939;50.814;6.368;2022-12-10T09:39:45;33.35;;;18.17;;
15677;SDS011;7939;50.814;6.368;2022-12-10T09:42:16;30.75;;;16.85;;
15677;SDS011;7939;50.814;6.368;2022-12-10T09:44:54;31.45;;;16.20;;
15677;SDS011;7939;50.814;6.368;2022-12-10T09:47:29;30.67;;;17.33;;
15677;SDS011;7939;50.814;6.368;2022-12-10T09:50:01;31.67;;;17.45;;
15677;SDS011;7939;50.814;6.368;2022-12-10T09:52:33;28.80;;;17.02;;
15677;SDS011;7939;50.814;6.368;2022-12-10T09:55:04;28.20;;;15.98;;
15677;SDS011;7939;50.814;6.368;2022-12-10T09:57:38;32.57;;;18.10;;
15677;SDS011;7939;50.814;6.368;2022-12-10T10:00:15;33.38;;;18.23;;
15677;SDS011;7939;50.814;6.368;2022-12-10T10:02:46;29.50;;;17.70;;
15677;SDS011;7939;50.814;6.368;2022-12-10T10:05:19;28.48;;;16.15;;
15677;SDS011;7939;50.814;6.368;2022-12-10T10:07:48;31.30;;;17.02;;
15677;SDS011;7939;50.814;6.368;2022-12-10T10:10:20;32.45;;;17.20;;
15677;SDS011;7939;50.814;6.368;2022-12-10T10:12:50;30.23;;;16.85;;
15677;SDS011;7939;50.814;6.368;2022-12-10T10:15:22;28.98;;;15.48;;
15677;SDS011;7939;50.814;6.368;2022-12-10T10:17:53;26.35;;;16.05;;
15677;SDS011;7939;50.814;6.368;2022-12-10T10:20:24;28.58;;;16.33;;
15677;SDS011;7939;50.814;6.368;2022-12-10T10:22:51;27.23;;;16.13;;
15677;SDS011;7939;50.814;6.368;2022-12-10T10:25:26;27.23;;;15.77;;
15677;SDS011;7939;50.814;6.368;2022-12-10T10:27:53;27.67;;;15.77;;
15677;SDS011;7939;50.814;6.368;2022-12-10T10:30:22;30.23;;;16.85;;
15677;SDS011;7939;50.814;6.368;2022-12-10T10:32:51;30.48;;;15.80;;
15677;SDS011;7939;50.814;6.368;2022-12-10T10:35:23;26.35;;;15.18;;
15677;SDS011;7939;50.814;6.368;2022-12-10T10:37:52;25.60;;;14.32;;
15677;SDS011;7939;50.814;6.368;2022-12-10T10:40:25;27.83;;;15.23;;
15677;SDS011;7939;50.814;6.368;2022-12-10T10:42:54;26.70;;;15.55;;
15677;SDS011;7939;50.814;6.368;2022-12-10T10:45:34;24.02;;;14.65;;
15677;SDS011;7939;50.814;6.368;2022-12-10T10:48:04;28.42;;;15.45;;
15677;SDS011;7939;50.814;6.368;2022-12-10T10:50:36;25.25;;;14.77;;
15677;SDS011;7939;50.814;6.368;2022-12-10T10:55:49;22.75;;;13.50;;
15677;SDS011;7939;50.814;6.368;2022-12-10T10:58:17;24.30;;;14.10;;
15677;SDS011;7939;50.814;6.368;2022-12-10T11:00:54;29.27;;;15.98;;
15677;SDS011;7939;50.814;6.368;2022-12-10T11:03:22;23.83;;;14.75;;
15677;SDS011;7939;50.814;6.368;2022-12-10T11:05:49;28.92;;;14.25;;
15677;SDS011;7939;50.814;6.368;2022-12-10T11:08:17;28.02;;;15.60;;
15677;SDS011;7939;50.814;6.368;2022-12-10T11:10:48;27.10;;;14.30;;
15677;SDS011;7939;50.814;6.368;2022-12-10T11:13:22;21.63;;;13.65;;
15677;SDS011;7939;50.814;6.368;2022-12-10T11:15:55;24.88;;;14.63;;
15677;SDS011;7939;50.814;6.368;2022-12-10T11:18:26;26.63;;;14.82;;
15677;SDS011;7939;50.814;6.368;2022-12-10T11:20:57;24.85;;;14.65;;
15677;SDS011;7939;50.814;6.368;2022-12-10T11:23:30;23.35;;;14.13;;
15677;SDS011;7939;50.814;6.368;2022-12-10T11:26:02;27.25;;;15.15;;
15677;SDS011;7939;50.814;6.368;2022-12-10T11:28:40;25.08;;;13.70;;
15677;SDS011;7939;50.814;6.368;2022-12-10T11:31:25;24.95;;;15.00;;
15677;SDS011;7939;50.814;6.368;2022-12-10T11:34:06;28.88;;;15.73;;
15677;SDS011;7939;50.814;6.368;2022-12-10T11:36:41;24.80;;;14.38;;
15677;SDS011;7939;50.814;6.368;2022-12-10T11:39:21;31.30;;;15.80;;
15677;SDS011;7939;50.814;6.368;2022-12-10T11:42:04;26.10;;;14.48;;
15677;SDS011;7939;50.814;6.368;2022-12-10T11:44:39;22.63;;;12.60;;
15677;SDS011;7939;50.814;6.368;2022-12-10T11:47:21;23.25;;;13.70;;
15677;SDS011;7939;50.814;6.368;2022-12-10T11:50:01;22.13;;;12.55;;
15677;SDS011;7939;50.814;6.368;2022-12-10T11:52:45;24.63;;;13.63;;
15677;SDS011;7939;50.814;6.368;2022-12-10T11:55:25;24.40;;;14.07;;
15677;SDS011;7939;50.814;6.368;2022-12-10T11:58:01;21.30;;;12.02;;
15677;SDS011;7939;50.814;6.368;2022-12-10T12:00:40;17.42;;;11.52;;
15677;SDS011;7939;50.814;6.368;2022-12-10T12:03:28;26.20;;;14.05;;
15677;SDS011;7939;50.814;6.368;2022-12-10T12:06:07;20.67;;;13.07;;
15677;SDS011;7939;50.814;6.368;2022-12-10T12:09:02;22.35;;;13.63;;
15677;SDS011;7939;50.814;6.368;2022-12-10T12:11:42;23.58;;;13.10;;
15677;SDS011;7939;50.814;6.368;2022-12-10T12:14:19;20.95;;;12.88;;
15677;SDS011;7939;50.814;6.368;2022-12-10T12:16:51;22.63;;;12.48;;
15677;SDS011;7939;50.814;6.368;2022-12-10T12:19:31;25.33;;;13.95;;
15677;SDS011;7939;50.814;6.368;2022-12-10T12:22:01;22.10;;;13.47;;
15677;SDS011;7939;50.814;6.368;2022-12-10T12:24:34;21.65;;;12.60;;
15677;SDS011;7939;50.814;6.368;2022-12-10T12:27:05;23.98;;;13.00;;
15677;SDS011;7939;50.814;6.368;2022-12-10T12:29:41;22.00;;;13.15;;
15677;SDS011;7939;50.814;6.368;2022-12-10T12:32:11;23.55;;;13.38;;
15677;SDS011;7939;50.814;6.368;2022-12-10T12:34:46;24.08;;;13.40;;
15677;SDS011;7939;50.814;6.368;2022-12-10T12:37:17;23.58;;;13.45;;
15677;SDS011;7939;50.814;6.368;2022-12-10T12:39:47;21.77;;;12.88;;
15677;SDS011;7939;50.814;6.368;2022-12-10T12:42:19;23.23;;;13.57;;
15677;SDS011;7939;50.814;6.368;2022-12-10T12:44:56;22.30;;;12.52;;
15677;SDS011;7939;50.814;6.368;2022-12-10T12:47:30;22.75;;;12.63;;
15677;SDS011;7939;50.814;6.368;2022-12-10T12:50:10;23.48;;;14.23;;
15677;SDS011;7939;50.814;6.368;2022-12-10T12:52:48;20.75;;;12.88;;
15677;SDS011;7939;50.814;6.368;2022-12-10T12:55:19;24.92;;;13.23;;
15677;SDS011;7939;50.814;6.368;2022-12-10T12:58:02;23.83;;;12.93;;
15677;SDS011;7939;50.814;6.368;2022-12-10T13:00:37;27.08;;;14.45;;
15677;SDS011;7939;50.814;6.368;2022-12-10T13:03:17;27.85;;;15.30;;
15677;SDS011;7939;50.814;6.368;2022-12-10T13:05:52;27.70;;;14.65;;
15677;SDS011;7939;50.814;6.368;2022-12-10T13:08:28;26.83;;;14.05;;
15677;SDS011;7939;50.814;6.368;2022-12-10T13:10:59;27.42;;;14.50;;
15677;SDS011;7939;50.814;6.368;2022-12-10T13:13:41;31.77;;;16.17;;
15677;SDS011;7939;50.814;6.368;2022-12-10T13:19:50;30.88;;;15.43;;
15677;SDS011;7939;50.814;6.368;2022-12-10T13:25:21;26.17;;;13.82;;
15677;SDS011;7939;50.814;6.368;2022-12-10T13:28:15;25.75;;;13.85;;
15677;SDS011;7939;50.814;6.368;2022-12-10T13:31:05;26.77;;;13.65;;
15677;SDS011;7939;50.814;6.368;2022-12-10T13:33:46;23.95;;;12.07;;
15677;SDS011;7939;50.814;6.368;2022-12-10T13:36:19;24.95;;;13.27;;
15677;SDS011;7939;50.814;6.368;2022-12-10T13:38:56;27.02;;;13.88;;
15677;SDS011;7939;50.814;6.368;2022-12-10T13:41:38;25.23;;;12.65;;
15677;SDS011;7939;50.814;6.368;2022-12-10T13:44:27;24.20;;;12.73;;
15677;SDS011;7939;50.814;6.368;2022-12-10T13:47:03;25.92;;;13.77;;
15677;SDS011;7939;50.814;6.368;2022-12-10T13:49:47;25.83;;;13.65;;
15677;SDS011;7939;50.814;6.368;2022-12-10T13:52:19;23.08;;;13.35;;
15677;SDS011;7939;50.814;6.368;2022-12-10T13:54:58;27.50;;;14.40;;
15677;SDS011;7939;50.814;6.368;2022-12-10T13:57:37;30.90;;;15.23;;
15677;SDS011;7939;50.814;6.368;2022-12-10T14:00:15;28.23;;;14.27;;
15677;SDS011;7939;50.814;6.368;2022-12-10T14:02:56;28.23;;;13.63;;
15677;SDS011;7939;50.814;6.368;2022-12-10T14:05:40;26.13;;;14.32;;
15677;SDS011;7939;50.814;6.368;2022-12-10T14:08:16;24.27;;;12.70;;
15677;SDS011;7939;50.814;6.368;2022-12-10T14:10:46;25.67;;;12.50;;
15677;SDS011;7939;50.814;6.368;2022-12-10T14:13:15;28.38;;;12.77;;
15677;SDS011;7939;50.814;6.368;2022-12-10T14:15:46;24.40;;;12.93;;
15677;SDS011;7939;50.814;6.368;2022-12-10T14:18:19;22.02;;;11.63;;
15677;SDS011;7939;50.814;6.368;2022-12-10T14:20:47;24.08;;;12.65;;
15677;SDS011;7939;50.814;6.368;2022-12-10T14:23:21;25.90;;;12.82;;
15677;SDS011;7939;50.814;6.368;2022-12-10T14:26:04;28.50;;;13.75;;
15677;SDS011;7939;50.814;6.368;2022-12-10T14:28:36;23.83;;;12.52;;
15677;SDS011;7939;50.814;6.368;2022-12-10T14:31:05;32.40;;;14.80;;
15677;SDS011;7939;50.814;6.368;2022-12-10T14:33:38;26.15;;;14.50;;
15677;SDS011;7939;50.814;6.368;2022-12-10T14:36:04;28.42;;;13.68;;
15677;SDS011;7939;50.814;6.368;2022-12-10T14:38:33;27.33;;;14.60;;
15677;SDS011;7939;50.814;6.368;2022-12-10T14:41:00;32.35;;;14.20;;
15677;SDS011;7939;50.814;6.368;2022-12-10T14:43:31;26.75;;;14.13;;
15677;SDS011;7939;50.814;6.368;2022-12-10T14:46:02;25.35;;;13.80;;
15677;SDS011;7939;50.814;6.368;2022-12-10T14:48:30;26.50;;;13.35;;
15677;SDS011;7939;50.814;6.368;2022-12-10T14:51:06;30.10;;;14.23;;
15677;SDS011;7939;50.814;6.368;2022-12-10T14:53:39;27.52;;;14.93;;
15677;SDS011;7939;50.814;6.368;2022-12-10T14:56:05;32.58;;;14.75;;
15677;SDS011;7939;50.814;6.368;2022-12-10T14:58:37;30.33;;;14.30;;
15677;SDS011;7939;50.814;6.368;2022-12-10T15:01:05;31.63;;;15.00;;
15677;SDS011;7939;50.814;6.368;2022-12-10T15:03:34;29.40;;;14.25;;